Terminal Aerodrome Forecast
Issued by NWS

Home | Current Version | Previous Version | Text Only | Print | Product List | Glossary On
Versions: 1 2 3 4 5 6 7 8 9 10 11 12 13 14
000
FTUS43 KOAX 182331 CCB
TAFBFF
TAF COR
KBFF 182331Z 1900/1924 03025G35KT P6SM BKN015
     FM190400 04017KT P6SM BKN015
     FM190600 04015KT P6SM VCSH OVC020
     FM191200 07013KT P6SM -SN OVC015
     FM191600 08013KT 3SM -SN OVC015
     FM192100 06011KT 1SM -SN BR OVC010=

USA.gov is the U.S. government's official web portal to all federal, state and local government web resources and services.